Time;durP1;ratioP1;P1;durP2;ratioP2;P2;SDS_P1;SDS_P2;PMS_P1;PMS_P2;Temp;Humidity;BMP_temperature;BMP_pressure;BME280_temperature;BME280_humidity;BME280_pressure;Samples;Min_cycle;Max_cycle;Signal;HPM_P1;HPM_P2
2023/03/11 00:01:28;;;;;;;9.30;7.05;;;;;;;16.26;83.26;101191.66;10293090;28;96613;-75
2023/03/11 00:06:34;;;;;;;51.80;46.50;;;;;;;16.23;83.45;101200.66;10293299;28;96679;-75
2023/03/11 00:11:37;;;;;;;6.90;5.20;;;;;;;16.21;84.04;101196.31;10292390;28;96622;-75
2023/03/11 00:16:41;;;;;;;8.07;4.70;;;;;;;16.27;83.60;101193.41;10310295;28;96779;-75
2023/03/11 00:21:45;;;;;;;5.70;4.95;;;;;;;16.28;84.07;101192.44;10332289;28;96734;-75
2023/03/11 00:26:48;;;;;;;8.15;6.50;;;;;;;16.27;83.82;101194.22;10333143;28;96784;-75
2023/03/11 00:31:52;;;;;;;11.57;7.90;;;;;;;16.15;84.49;101186.00;10331773;28;96678;-75
2023/03/11 00:36:56;;;;;;;10.70;7.72;;;;;;;16.18;83.97;101181.41;10295823;28;96812;-75
2023/03/11 00:42:00;;;;;;;9.40;7.35;;;;;;;16.08;84.81;101180.13;10291036;28;96909;-75
2023/03/11 00:47:03;;;;;;;10.68;9.13;;;;;;;16.18;84.56;101183.19;10291569;28;96694;-75
2023/03/11 00:52:07;;;;;;;5.32;2.90;;;;;;;16.24;85.17;101182.94;10292115;28;96782;-76
2023/03/11 00:57:11;;;;;;;9.02;8.23;;;;;;;16.21;84.80;101191.88;10291587;28;96773;-75
2023/03/11 01:02:14;;;;;;;6.97;5.07;;;;;;;16.19;84.99;101200.84;10300146;28;96763;-75
2023/03/11 01:07:18;;;;;;;2.53;1.92;;;;;;;16.21;85.81;101199.84;10317726;28;97080;-75
2023/03/11 01:12:21;;;;;;;3.83;1.67;;;;;;;16.27;85.74;101212.00;10289994;28;97296;-75
2023/03/11 01:17:25;;;;;;;1.75;1.40;;;;;;;16.27;85.49;101207.50;10290470;28;96599;-75
2023/03/11 01:22:29;;;;;;;2.67;1.83;;;;;;;16.33;85.63;101204.56;10291014;28;96743;-75
2023/03/11 01:27:32;;;;;;;1.73;1.15;;;;;;;16.32;86.12;101210.84;10290550;28;96694;-75
2023/03/11 01:32:36;;;;;;;1.55;1.00;;;;;;;16.35;85.59;101209.81;10290418;28;96779;-75
2023/03/11 01:37:40;;;;;;;1.40;1.20;;;;;;;16.38;85.67;101191.94;10290364;28;96909;-75
2023/03/11 01:42:43;;;;;;;;;;;;;;;16.26;85.89;101189.88;10290870;28;96885;-75
2023/03/11 01:47:46;;;;;;;2.72;1.73;;;;;;;16.31;85.24;101192.28;10297979;28;96705;-75
2023/03/11 01:52:51;;;;;;;1.70;1.30;;;;;;;16.36;85.56;101198.28;10296587;28;96897;-75
2023/03/11 01:57:55;;;;;;;2.95;1.23;;;;;;;16.31;85.25;101197.59;10296067;28;96705;-75
2023/03/11 02:03:01;;;;;;;5.00;2.78;;;;;;;16.32;85.82;101178.97;10295364;28;96633;-76
2023/03/11 02:08:07;;;;;;;3.13;2.35;;;;;;;16.36;85.80;101179.69;10296386;28;96616;-75
2023/03/11 02:13:11;;;;;;;7.95;2.20;;;;;;;16.41;85.15;101189.16;10295896;28;97153;-75
2023/03/11 02:18:17;;;;;;;3.67;1.70;;;;;;;16.47;85.19;101172.94;10295420;28;97053;-75
2023/03/11 02:23:27;;;;;;;3.35;1.67;;;;;;;16.47;85.41;101174.72;10295857;28;96541;-75
2023/03/11 02:28:34;;;;;;;3.03;2.10;;;;;;;16.45;85.02;101182.75;10295195;28;97102;-76
2023/03/11 02:33:38;;;;;;;2.38;2.03;;;;;;;16.49;84.96;101176.38;10320443;28;96580;-75
2023/03/11 02:38:41;;;;;;;2.70;1.80;;;;;;;16.45;85.20;101187.22;10336495;28;96706;-76
2023/03/11 02:43:46;;;;;;;3.30;1.90;;;;;;;16.48;84.96;101181.75;10335456;28;96814;-75
2023/03/11 02:48:51;;;;;;;2.10;1.70;;;;;;;16.48;84.82;101157.84;10324755;28;96727;-75
2023/03/11 02:53:59;;;;;;;3.88;2.10;;;;;;;16.46;85.26;101170.34;10292960;28;96640;-75
2023/03/11 02:59:04;;;;;;;4.65;2.33;;;;;;;16.45;85.38;101152.66;10294189;28;96771;-75
2023/03/11 03:04:07;;;;;;;5.20;2.38;;;;;;;16.48;85.16;101150.72;10294672;28;96569;-75
2023/03/11 03:09:10;;;;;;;3.78;2.30;;;;;;;16.50;84.79;101135.56;10294694;28;96642;-75
2023/03/11 03:14:15;;;;;;;4.00;2.28;;;;;;;16.45;85.13;101136.72;10294206;28;96701;-76
2023/03/11 03:19:18;;;;;;;4.30;2.75;;;;;;;16.41;84.84;101140.50;10293742;28;96654;-75
2023/03/11 03:24:21;;;;;;;4.10;2.55;;;;;;;16.43;84.61;101143.94;10294322;28;96861;-75
2023/03/11 03:29:26;;;;;;;4.60;2.85;;;;;;;16.45;84.43;101136.72;10294472;28;96688;-75
2023/03/11 03:34:29;;;;;;;5.13;2.92;;;;;;;16.43;84.43;101131.50;10293107;28;96748;-75
2023/03/11 03:39:33;;;;;;;5.10;2.72;;;;;;;16.41;84.66;101129.88;10301029;28;97325;-75
2023/03/11 03:44:37;;;;;;;4.30;2.67;;;;;;;16.45;84.31;101121.66;10333330;28;96610;-75
2023/03/11 03:49:40;;;;;;;5.30;2.80;;;;;;;16.40;84.84;101134.31;10334149;28;96609;-75
2023/03/11 03:54:44;;;;;;;7.05;2.65;;;;;;;16.36;84.55;101132.69;10334123;28;96749;-75
2023/03/11 03:59:48;;;;;;;4.97;2.83;;;;;;;16.41;84.17;101129.88;10332975;28;97000;-75
2023/03/11 04:04:51;;;;;;;7.03;3.08;;;;;;;16.35;84.60;101104.44;10333581;28;97079;-75
2023/03/11 04:09:54;;;;;;;5.00;2.90;;;;;;;16.36;84.51;101100.81;10333012;28;96776;-75
2023/03/11 04:14:59;;;;;;;6.03;3.28;;;;;;;16.39;83.92;101102.47;10313329;28;97083;-75
2023/03/11 04:20:03;;;;;;;4.07;2.80;;;;;;;16.37;84.04;101099.03;10293149;28;96595;-75
2023/03/11 04:25:07;;;;;;;6.28;2.95;;;;;;;16.29;84.12;101103.88;10291912;28;96744;-75
2023/03/11 04:30:13;;;;;;;4.68;2.95;;;;;;;16.27;84.39;101109.25;10297046;28;96595;-75
2023/03/11 04:35:16;;;;;;;4.40;2.95;;;;;;;16.29;84.34;101123.31;10292065;28;96848;-75
2023/03/11 04:40:20;;;;;;;8.10;3.47;;;;;;;16.27;84.51;101121.69;10291110;28;96790;-75
2023/03/11 04:45:24;;;;;;;5.25;3.28;;;;;;;16.30;84.49;101118.88;10291692;28;96878;-75
2023/03/11 04:50:27;;;;;;;5.25;2.85;;;;;;;16.33;83.88;101118.72;10292371;28;97472;-75
2023/03/11 04:55:32;;;;;;;4.68;2.97;;;;;;;16.23;84.07;101114.78;10291183;28;97449;-75
2023/03/11 05:00:36;;;;;;;6.00;3.20;;;;;;;16.27;84.42;101121.69;10291280;28;96627;-75
2023/03/11 05:05:40;;;;;;;7.18;3.20;;;;;;;16.17;84.41;101118.59;10291688;28;96648;-75
2023/03/11 05:10:43;;;;;;;5.80;3.78;;;;;;;16.18;84.67;101122.13;10291561;28;96819;-75
2023/03/11 05:15:48;;;;;;;6.80;3.50;;;;;;;16.12;85.06;101119.75;10290876;28;96765;-75
2023/03/11 05:20:52;;;;;;;7.15;3.17;;;;;;;16.08;84.82;101121.72;10296245;28;96933;-75
2023/03/11 05:25:55;;;;;;;5.28;3.30;;;;;;;16.18;84.44;101127.44;10296860;28;96745;-75
2023/03/11 05:31:00;;;;;;;5.22;3.22;;;;;;;16.24;83.73;101130.66;10297664;28;96906;-75
2023/03/11 05:36:04;;;;;;;;;;;;;;;16.25;83.87;101153.63;10298052;28;96693;-75
2023/03/11 05:41:07;;;;;;;5.68;3.03;;;;;;;16.25;83.51;101142.13;10326568;28;97121;-75
2023/03/11 05:46:12;;;;;;;7.47;3.10;;;;;;;16.20;84.23;101136.19;10338257;28;96549;-75
2023/03/11 05:51:16;;;;;;;5.82;3.22;;;;;;;16.26;84.14;101143.84;10338128;28;96665;-75
2023/03/11 05:56:21;;;;;;;6.05;3.80;;;;;;;16.22;83.92;101140.47;10337032;28;96610;-75
2023/03/11 06:01:25;;;;;;;5.32;3.40;;;;;;;16.28;83.39;101131.34;10338336;28;96604;-75
2023/03/11 06:06:29;;;;;;;;;;;;;;;16.13;83.86;101137.44;10337714;28;96744;-75
2023/03/11 06:11:32;;;;;;;5.05;3.00;;;;;;;16.21;83.14;101143.22;10337074;28;96605;-75
2023/03/11 06:16:37;;;;;;;7.93;3.25;;;;;;;16.19;83.78;101153.91;10295097;28;96727;-75
2023/03/11 06:21:40;;;;;;;;;;;;;;;16.11;83.41;101163.19;10295829;28;96796;-75
2023/03/11 06:26:43;;;;;;;6.40;3.47;;;;;;;16.19;83.05;101143.28;10295912;28;97271;-75
2023/03/11 06:31:48;;;;;;;6.07;3.30;;;;;;;16.16;83.28;101151.41;10315111;28;97241;-75
2023/03/11 06:36:53;;;;;;;5.50;2.95;;;;;;;16.20;82.84;101153.00;10336463;28;96657;-76
2023/03/11 06:41:56;;;;;;;;;;;;;;;16.16;82.80;101137.25;10336455;28;96720;-75
2023/03/11 06:47:02;;;;;;;8.02;3.80;;;;;;;16.13;82.64;101134.78;10323501;28;96671;-75
2023/03/11 06:52:06;;;;;;;7.60;3.13;;;;;;;16.17;82.84;101142.50;10295782;28;96661;-76
2023/03/11 06:57:10;;;;;;;5.85;3.20;;;;;;;16.21;82.08;101145.88;10294552;28;96600;-75
2023/03/11 07:02:16;;;;;;;5.27;3.13;;;;;;;16.19;82.46;101161.00;10294583;28;97341;-75
2023/03/11 07:07:20;;;;;;;7.30;3.42;;;;;;;16.24;82.50;101146.59;10333930;28;96863;-75
2023/03/11 07:12:24;;;;;;;6.55;3.33;;;;;;;16.25;82.39;101158.06;10335318;28;96895;-75
2023/03/11 07:17:28;;;;;;;5.67;3.23;;;;;;;16.25;82.49;101153.63;10335210;28;96660;-75
2023/03/11 07:22:32;;;;;;;4.88;2.90;;;;;;;16.26;81.90;101151.81;10334797;28;96917;-75
2023/03/11 07:27:35;;;;;;;5.00;3.22;;;;;;;16.31;82.10;101150.66;10335105;28;96654;-75
2023/03/11 07:32:41;;;;;;;6.45;3.35;;;;;;;16.24;81.78;101151.91;10300491;28;96785;-75
2023/03/11 07:37:44;;;;;;;5.07;3.00;;;;;;;16.20;82.16;101157.44;10293957;28;96682;-75
2023/03/11 07:42:47;;;;;;;7.10;3.40;;;;;;;16.26;81.59;101158.00;10292673;28;96702;-75
2023/03/11 07:47:52;;;;;;;5.85;3.53;;;;;;;16.22;81.81;101164.38;10293266;28;96602;-75
2023/03/11 07:52:55;;;;;;;;;;;;;;;16.16;82.08;101172.66;10293811;28;97014;-75
2023/03/11 07:57:58;;;;;;;4.90;3.05;;;;;;;16.28;81.99;101171.19;10292681;28;97161;-75
2023/03/11 08:03:03;;;;;;;5.93;3.00;;;;;;;16.37;81.37;101176.06;10292722;28;96659;-76
2023/03/11 08:08:06;;;;;;;5.75;3.42;;;;;;;16.37;81.45;101171.63;10292674;28;97146;-75
2023/03/11 08:13:10;;;;;;;5.80;3.17;;;;;;;16.51;81.11;101178.94;10292846;28;96745;-75
2023/03/11 08:18:14;;;;;;;6.50;3.25;;;;;;;16.50;81.04;101175.44;10292267;28;96510;-75
2023/03/11 08:23:19;;;;;;;6.00;3.22;;;;;;;16.56;81.53;101191.06;10292349;28;96695;-75
2023/03/11 08:28:22;;;;;;;5.63;3.28;;;;;;;16.56;81.47;101176.94;10292324;28;96733;-75
2023/03/11 08:33:27;;;;;;;5.57;3.53;;;;;;;16.41;81.90;101197.13;10333386;28;96714;-75
2023/03/11 08:38:30;;;;;;;6.72;3.88;;;;;;;16.56;81.26;101188.41;10332797;28;97013;-75
2023/03/11 08:43:34;;;;;;;8.38;3.50;;;;;;;16.67;81.50;101186.06;10332311;28;97109;-75
2023/03/11 08:48:39;;;;;;;7.43;3.80;;;;;;;16.78;81.10;101182.88;10297636;28;96790;-75
2023/03/11 08:53:42;;;;;;;7.82;3.70;;;;;;;16.81;81.43;101188.03;10293590;28;98177;-75
2023/03/11 08:58:46;;;;;;;7.82;3.47;;;;;;;16.88;80.75;101200.97;10298555;28;96660;-75
2023/03/11 09:03:51;;;;;;;9.35;3.60;;;;;;;16.95;81.11;101197.06;10298745;28;96589;-75
2023/03/11 09:08:54;;;;;;;6.40;3.50;;;;;;;16.88;80.97;101198.28;10298420;28;96674;-75
2023/03/11 09:13:57;;;;;;;8.48;3.40;;;;;;;16.91;81.45;101194.63;10297963;28;97325;-75
2023/03/11 09:19:06;;;;;;;8.05;4.03;;;;;;;16.90;81.25;101195.56;10298264;28;96699;-75
2023/03/11 09:24:09;;;;;;;8.10;4.15;;;;;;;16.83;81.74;101203.00;10298746;28;96747;-75
2023/03/11 09:29:12;;;;;;;8.00;4.70;;;;;;;16.80;82.69;101208.47;10311751;28;97122;-75
2023/03/11 09:34:17;;;;;;;12.45;5.07;;;;;;;16.77;83.06;101208.59;10338534;28;97270;-75
2023/03/11 09:39:20;;;;;;;;;;;;;;;16.54;84.20;101200.91;10305655;28;96670;-75
2023/03/11 09:44:31;;;;;;;7.38;4.43;;;;;;;16.66;83.57;101216.25;10297207;28;96880;-75
2023/03/11 09:49:48;;;;;;;8.70;5.53;;;;;;;16.79;83.79;101228.00;10296867;28;97488;-75
2023/03/11 09:54:55;;;;;;;9.30;4.97;;;;;;;16.98;83.84;101234.13;10297429;28;97247;-76
2023/03/11 10:00:02;;;;;;;8.68;4.60;;;;;;;17.00;83.80;101248.19;10296539;28;96702;-75
2023/03/11 10:05:13;;;;;;;9.10;4.72;;;;;;;17.19;83.08;101240.13;10315156;28;96734;-75
2023/03/11 10:10:18;;;;;;;6.53;4.40;;;;;;;17.40;82.40;101241.69;10330824;28;96714;-75
2023/03/11 10:15:30;;;;;;;9.23;3.90;;;;;;;17.62;81.95;101246.81;10296879;28;96722;-75
2023/03/11 10:20:45;;;;;;;11.15;4.50;;;;;;;17.66;81.08;101249.22;10295665;28;96652;-75
2023/03/11 10:25:58;;;;;;;9.80;4.18;;;;;;;17.82;80.76;101236.81;10305530;28;98638;-76
2023/03/11 10:31:07;;;;;;;8.27;4.25;;;;;;;18.05;80.05;101231.13;10320607;28;97337;-82
2023/03/11 10:36:16;;;;;;;8.52;3.88;;;;;;;18.11;78.91;101235.22;10311697;28;96918;-79
2023/03/11 10:41:23;;;;;;;9.00;4.10;;;;;;;18.36;78.07;101250.72;10303553;28;96810;-79
2023/03/11 10:46:29;;;;;;;8.63;4.20;;;;;;;18.62;77.31;101242.16;10323660;28;97407;-79
2023/03/11 10:51:35;;;;;;;8.10;4.03;;;;;;;19.20;75.84;101245.81;10323117;28;96945;-80
2023/03/11 10:56:40;;;;;;;9.85;3.72;;;;;;;19.41;75.44;101246.41;10335480;28;96783;-80
2023/03/11 11:01:55;;;;;;;8.43;3.63;;;;;;;19.07;74.43;101247.50;10336259;28;97609;-80
2023/03/11 11:07:19;;;;;;;;;;;;;;;18.94;73.72;101226.00;10308383;28;96827;-79
2023/03/11 11:12:22;;;;;;;7.22;3.25;;;;;;;19.01;74.33;101229.16;10330993;28;99126;-80
2023/03/11 11:17:30;;;;;;;9.18;3.33;;;;;;;18.95;73.87;101240.22;10323896;28;97208;-80
2023/03/11 11:22:35;;;;;;;7.35;3.30;;;;;;;18.76;73.98;101223.56;10310080;28;99113;-79
2023/03/11 11:27:38;;;;;;;6.10;3.05;;;;;;;18.81;73.29;101221.47;10371042;28;96831;-79
2023/03/11 11:32:41;;;;;;;6.95;3.05;;;;;;;19.03;73.17;101221.94;10364133;28;96739;-79
2023/03/11 11:37:48;;;;;;;6.85;3.13;;;;;;;18.97;72.35;101214.31;10364415;28;96790;-79
2023/03/11 11:42:55;;;;;;;8.25;3.15;;;;;;;18.78;72.30;101214.50;10361625;28;99182;-79
2023/03/11 11:48:03;;;;;;;8.48;3.28;;;;;;;18.95;72.44;101226.88;10368170;28;96792;-79
2023/03/11 11:53:19;;;;;;;9.30;3.15;;;;;;;19.27;71.75;101213.34;10336240;28;96941;-79
2023/03/11 11:58:22;;;;;;;8.20;2.70;;;;;;;19.09;70.93;101221.59;10359438;28;99155;-80
2023/03/11 12:03:52;;;;;;;7.28;3.08;;;;;;;18.99;70.99;101223.09;10362630;28;96872;-79
2023/03/11 12:09:07;;;;;;;5.90;2.75;;;;;;;18.93;71.11;101229.63;10287525;28;96863;-79
2023/03/11 12:14:14;;;;;;;;;;;;;;;18.78;71.54;101243.00;10328502;28;98363;-80
2023/03/11 12:19:25;;;;;;;10.70;3.40;;;;;;;18.74;71.99;101257.44;10318578;28;96932;-81
2023/03/11 12:24:50;;;;;;;8.50;3.45;;;;;;;18.56;71.46;101256.69;10335440;28;98776;-81
2023/03/11 12:29:56;;;;;;;8.82;3.63;;;;;;;18.64;71.62;101258.91;10340437;28;96820;-80
2023/03/11 12:35:04;;;;;;;11.38;4.88;;;;;;;18.65;71.74;101241.97;10333850;28;98487;-80
2023/03/11 12:40:56;;;;;;;9.60;4.82;;;;;;;18.48;71.38;101242.06;10315605;28;96828;-79
2023/03/11 12:46:01;;;;;;;9.75;4.75;;;;;;;18.26;71.83;101249.50;10297445;28;96835;-79
2023/03/11 12:51:05;;;;;;;7.15;4.25;;;;;;;18.10;72.27;101262.81;10306712;28;96768;-78
2023/03/11 12:56:17;;;;;;;11.33;4.00;;;;;;;18.06;72.46;101267.44;10321729;28;98316;-79
2023/03/11 13:01:40;;;;;;;10.45;3.97;;;;;;;17.97;72.80;101254.63;10321739;28;97635;-79
2023/03/11 13:07:06;;;;;;;7.60;3.92;;;;;;;17.97;73.12;101254.63;10314421;28;99250;-79
2023/03/11 13:12:42;;;;;;;10.20;4.28;;;;;;;18.00;73.52;101248.28;10309284;28;96932;-80
2023/03/11 13:17:59;;;;;;;8.27;3.70;;;;;;;18.03;73.62;101226.81;10314130;28;96867;-81
2023/03/11 13:23:21;;;;;;;8.25;3.90;;;;;;;17.91;73.40;101230.13;10326544;28;97744;-80
2023/03/11 13:28:49;;;;;;;11.02;3.90;;;;;;;17.84;73.57;101220.75;10325011;28;99554;-80
2023/03/11 13:33:56;;;;;;;5.57;3.13;;;;;;;17.84;73.47;101213.63;10330797;28;97154;-78
2023/03/11 13:39:30;;;;;;;7.80;2.90;;;;;;;17.86;72.88;101216.22;10290731;28;96737;-78
2023/03/11 13:44:36;;;;;;;6.40;2.83;;;;;;;17.82;73.09;101218.19;10293308;28;97506;-84
2023/03/11 13:49:45;;;;;;;6.97;2.83;;;;;;;17.77;73.30;101222.91;10322355;28;97490;-83
2023/03/11 13:54:54;;;;;;;7.97;3.00;;;;;;;17.80;73.21;101225.38;10311851;28;97864;-80
2023/03/11 13:59:58;;;;;;;10.32;4.15;;;;;;;17.84;73.23;101220.75;10334155;28;99292;-80
2023/03/11 14:05:06;;;;;;;9.97;4.70;;;;;;;17.84;74.04;101220.75;10355261;28;96815;-80
2023/03/11 14:10:21;;;;;;;11.52;5.38;;;;;;;17.80;73.78;101222.72;10331064;28;96889;-81
2023/03/11 14:15:26;;;;;;;9.15;4.63;;;;;;;17.85;74.27;101210.03;10308881;28;96867;-81
2023/03/11 14:20:31;;;;;;;13.23;4.88;;;;;;;17.76;73.80;101207.00;10341507;28;96816;-78
2023/03/11 14:25:35;;;;;;;;;;;;;;;17.69;73.72;101198.47;10302486;28;96821;-80
2023/03/11 14:30:38;;;;;;;7.57;3.63;;;;;;;17.71;74.00;101182.44;10314675;28;97824;-77
2023/03/11 15:12:48;;;;;;;8.18;4.80;;;;;;;18.22;68.75;101190.22;10443152;27;97255;-80
2023/03/11 15:17:56;;;;;;;11.85;6.68;;;;;;;18.08;69.07;101198.09;10402899;27;96826;-77
2023/03/11 15:23:01;;;;;;;12.82;7.60;;;;;;;18.03;69.65;101218.81;10397524;28;97258;-77
2023/03/11 15:28:31;;;;;;;17.20;10.73;;;;;;;18.04;69.99;101181.44;10401194;28;97715;-77
2023/03/11 15:33:34;;;;;;;19.50;11.52;;;;;;;18.29;69.92;101180.94;10377407;28;96823;-78
2023/03/11 15:38:37;;;;;;;18.35;11.38;;;;;;;18.31;69.73;101183.50;10414980;28;96812;-80
2023/03/11 15:43:47;;;;;;;20.60;10.30;;;;;;;18.19;69.75;101188.56;10413739;28;97194;-79
2023/03/11 15:48:50;;;;;;;12.90;8.55;;;;;;;18.16;69.98;101196.72;10398739;28;96795;-80
2023/03/11 15:53:53;;;;;;;14.68;8.18;;;;;;;18.09;70.57;101221.13;10393465;28;99300;-79
2023/03/11 15:58:58;;;;;;;14.00;7.38;;;;;;;18.05;70.20;101207.16;10410706;28;99282;-79
2023/03/11 16:04:01;;;;;;;11.50;5.57;;;;;;;18.02;70.72;101201.97;10396262;28;98556;-81
2023/03/11 16:09:05;;;;;;;11.60;5.35;;;;;;;17.98;70.94;101188.91;10401584;28;97135;-81
2023/03/11 16:14:15;;;;;;;9.35;4.70;;;;;;;17.92;71.20;101197.22;10359296;28;97269;-80
2023/03/11 16:19:18;;;;;;;8.15;4.75;;;;;;;17.83;72.10;101200.41;10356153;28;97363;-81
2023/03/11 16:24:25;;;;;;;10.40;4.80;;;;;;;17.82;72.90;101199.53;10366836;28;97132;-82
2023/03/11 16:29:29;;;;;;;8.98;5.20;;;;;;;17.79;73.00;101205.03;10369550;28;96826;-80
2023/03/11 16:34:32;;;;;;;;;;;;;;;17.75;73.41;101224.78;10377192;28;99563;-79
2023/03/11 16:39:37;;;;;;;10.07;5.57;;;;;;;17.86;72.95;101195.78;10374877;28;99590;-79
2023/03/11 16:44:41;;;;;;;;;;;;;;;17.82;74.13;101217.31;10371459;28;99145;-81
2023/03/11 16:49:45;;;;;;;13.05;6.38;;;;;;;17.69;74.65;101214.44;10374488;28;97111;-86
2023/03/11 16:54:49;;;;;;;13.85;6.53;;;;;;;17.67;74.73;101205.69;10379109;28;97640;-78
2023/03/11 16:59:53;;;;;;;16.43;6.77;;;;;;;17.66;74.57;101221.72;10377971;28;96575;-79
2023/03/11 17:04:56;;;;;;;;;;;;;;;17.65;74.68;101212.91;10375895;28;97482;-78
2023/03/11 17:10:00;;;;;;;12.57;6.35;;;;;;;17.75;73.88;101219.44;10378007;28;99431;-79
2023/03/11 17:15:07;;;;;;;13.27;6.85;;;;;;;17.83;73.82;101216.38;10378249;28;98731;-78
2023/03/11 17:20:11;;;;;;;17.42;7.32;;;;;;;17.81;74.29;101194.31;10364105;28;98545;-77
2023/03/11 17:30:33;;;;;;;18.90;11.63;;;;;;;17.74;74.53;101201.78;10975389;22;98420;-76
2023/03/11 17:35:39;;;;;;;16.13;8.50;;;;;;;17.76;74.34;101204.34;10360335;28;97073;-77
2023/03/11 17:40:42;;;;;;;14.15;7.80;;;;;;;17.77;74.73;101217.56;10338049;28;96985;-77
2023/03/11 17:45:47;;;;;;;12.93;7.32;;;;;;;17.70;74.52;101213.53;10350390;28;96847;-78
2023/03/11 17:50:50;;;;;;;;;;;;;;;17.53;75.37;101213.56;10335497;28;96842;-78
2023/03/11 17:55:53;;;;;;;13.90;7.93;;;;;;;17.67;74.99;101212.81;10341281;28;97224;-78
2023/03/11 18:00:59;;;;;;;18.38;7.85;;;;;;;17.67;75.81;101220.81;10344010;28;97235;-80
2023/03/11 18:06:04;;;;;;;17.33;10.75;;;;;;;17.66;74.69;101206.63;10341387;28;96890;-80
2023/03/11 18:11:09;;;;;;;17.13;10.02;;;;;;;17.55;75.82;101198.38;10358144;28;98818;-79
2023/03/11 18:16:16;;;;;;;15.80;9.68;;;;;;;17.55;75.76;101203.69;10359808;28;98514;-79
2023/03/11 18:21:22;;;;;;;22.13;11.15;;;;;;;17.55;75.64;101208.16;10331758;28;97184;-78
2023/03/11 18:26:28;;;;;;;23.23;12.65;;;;;;;17.50;76.05;101215.53;10331804;28;96844;-78
2023/03/11 18:31:33;;;;;;;23.58;12.32;;;;;;;17.50;76.35;101213.69;10334164;28;98012;-79
2023/03/11 18:36:37;;;;;;;21.70;13.23;;;;;;;17.48;76.29;101212.94;10365459;28;98676;-79
2023/03/11 18:41:41;;;;;;;22.23;12.90;;;;;;;17.42;76.36;101225.66;10364072;28;96726;-79
2023/03/11 18:46:46;;;;;;;21.58;12.85;;;;;;;17.34;77.06;101226.06;10341950;28;97352;-80
2023/03/11 18:51:49;;;;;;;;;;;;;;;17.23;77.45;101238.19;10335225;28;96733;-80
2023/03/11 18:56:52;;;;;;;19.10;10.40;;;;;;;17.27;77.31;101235.31;10332750;28;96721;-79
2023/03/11 19:01:57;;;;;;;18.77;10.55;;;;;;;17.19;77.24;101233.97;10338121;28;99427;-78
2023/03/11 19:07:00;;;;;;;23.40;13.45;;;;;;;17.16;77.62;101240.31;10358668;28;96771;-77
2023/03/11 19:12:04;;;;;;;38.90;26.42;;;;;;;17.19;77.82;101244.63;10345262;28;97215;-78
2023/03/11 19:17:08;;;;;;;34.70;23.95;;;;;;;17.17;77.65;101243.84;10327008;28;97404;-78
2023/03/11 19:22:11;;;;;;;27.33;15.75;;;;;;;17.17;77.75;101244.72;10351308;28;96928;-78
2023/03/11 19:27:15;;;;;;;23.05;16.10;;;;;;;17.07;78.40;101258.53;10344731;28;97539;-80
2023/03/11 19:32:19;;;;;;;20.80;12.57;;;;;;;16.95;78.76;101254.69;10345581;28;98011;-77
2023/03/11 19:37:22;;;;;;;;;;;;;;;16.84;78.89;101243.72;10371939;28;96889;-78
2023/03/11 19:42:26;;;;;;;21.25;11.10;;;;;;;16.79;79.32;101251.09;10355434;28;96955;-81
2023/03/11 19:47:30;;;;;;;22.52;11.20;;;;;;;16.78;79.00;101249.34;10338838;28;96819;-80
2023/03/11 19:52:34;;;;;;;;;;;;;;;16.65;80.06;101266.84;10353217;28;97698;-74
2023/03/11 19:57:38;;;;;;;22.25;12.65;;;;;;;16.69;79.48;101274.56;10354585;28;97810;-77
2023/03/11 20:02:43;;;;;;;20.88;11.25;;;;;;;16.70;79.19;101267.47;10352509;28;97655;-89
2023/03/11 20:07:46;;;;;;;23.25;12.60;;;;;;;16.72;79.03;101276.25;10341588;28;96807;-82
2023/03/11 20:12:50;;;;;;;20.98;12.85;;;;;;;16.69;79.23;101282.53;10366850;28;96782;-84
2023/03/11 20:18:06;;;;;;;24.87;13.07;;;;;;;16.69;79.21;101279.03;10378339;28;96889;-83
2023/03/11 20:23:10;;;;;;;22.00;12.25;;;;;;;16.70;79.09;101271.00;10375209;28;97396;-79
2023/03/11 20:28:13;;;;;;;22.52;11.45;;;;;;;16.67;78.77;101265.81;10338021;28;98846;-79
2023/03/11 20:33:18;;;;;;;19.98;10.50;;;;;;;16.65;79.06;101267.69;10341334;28;96624;-78
2023/03/11 20:38:21;;;;;;;;;;;;;;;16.54;79.24;101274.44;10353819;28;97242;-78
2023/03/11 20:43:24;;;;;;;23.70;12.07;;;;;;;16.62;78.86;101266.97;10366494;28;97778;-78
2023/03/11 20:48:30;;;;;;;22.48;10.93;;;;;;;16.61;78.60;101262.59;10371491;28;96764;-77
2023/03/11 20:53:34;;;;;;;26.85;15.05;;;;;;;16.66;78.65;101260.56;10377786;28;97214;-78
2023/03/11 20:58:38;;;;;;;22.17;12.63;;;;;;;16.68;78.79;101266.69;10335687;28;97188;-78
2023/03/11 21:03:43;;;;;;;23.23;12.90;;;;;;;16.51;79.12;101266.63;10368726;28;98629;-78
2023/03/11 21:08:47;;;;;;;22.58;12.65;;;;;;;16.51;79.59;101269.28;10339871;28;98207;-78
2023/03/11 21:13:51;;;;;;;20.27;12.40;;;;;;;16.30;80.04;101276.44;10350890;28;96785;-79
2023/03/11 21:18:56;;;;;;;21.85;12.73;;;;;;;16.19;80.61;101275.22;10358266;28;99698;-80
2023/03/11 21:23:59;;;;;;;;;;;;;;;16.20;80.48;101277.81;10348201;28;98625;-78
2023/03/11 21:29:03;;;;;;;28.70;15.20;;;;;;;16.20;80.19;101280.47;10355187;28;96879;-77
2023/03/11 21:34:10;;;;;;;26.52;15.32;;;;;;;16.15;80.53;101282.44;10338847;28;99371;-77
2023/03/11 21:39:14;;;;;;;26.33;13.68;;;;;;;16.12;80.55;101295.00;10338649;28;97057;-79
2023/03/11 21:44:17;;;;;;;20.70;13.65;;;;;;;16.11;80.58;101294.16;10336630;28;97856;-78
2023/03/11 21:49:22;;;;;;;26.90;15.38;;;;;;;16.08;80.65;101307.59;10333151;28;96795;-78
2023/03/11 21:54:26;;;;;;;25.20;14.15;;;;;;;16.18;80.89;101315.97;10333595;28;96657;-78
2023/03/11 21:59:30;;;;;;;26.33;14.25;;;;;;;16.20;80.85;101316.78;10335790;28;97146;-77
2023/03/11 22:04:34;;;;;;;23.08;12.55;;;;;;;16.16;80.92;101305.44;10336385;28;96799;-78
2023/03/11 22:09:37;;;;;;;;;;;;;;;16.09;80.70;101319.06;10336616;28;97268;-78
2023/03/11 22:14:41;;;;;;;28.33;13.93;;;;;;;15.97;80.44;101307.19;10338222;28;96863;-77
2023/03/11 22:19:46;;;;;;;22.65;13.52;;;;;;;15.89;80.83;101310.19;10336639;28;97014;-77
2023/03/11 22:24:49;;;;;;;28.35;14.27;;;;;;;15.94;80.41;101302.03;10335419;28;97200;-78
2023/03/11 22:29:52;;;;;;;17.50;10.55;;;;;;;15.71;81.26;101308.38;10340644;28;99573;-78
2023/03/11 22:34:57;;;;;;;17.60;10.45;;;;;;;15.67;80.64;101301.47;10361762;28;96750;-79
2023/03/11 22:40:00;;;;;;;20.70;12.07;;;;;;;15.63;80.91;101304.31;10344639;28;99477;-78
2023/03/11 22:45:05;;;;;;;19.00;11.35;;;;;;;15.60;80.42;101305.31;10346775;28;99799;-78
2023/03/11 22:50:10;;;;;;;22.90;10.90;;;;;;;15.47;80.90;101306.78;10339303;28;96936;-79
2023/03/11 22:55:14;;;;;;;21.27;12.27;;;;;;;15.45;80.97;101287.41;10350640;28;98525;-79
2023/03/11 23:00:19;;;;;;;20.08;12.00;;;;;;;15.37;80.81;101289.50;10350898;28;99343;-80
2023/03/11 23:05:24;;;;;;;21.63;11.85;;;;;;;15.36;80.36;101279.84;10346935;28;98635;-80
2023/03/11 23:10:27;;;;;;;22.95;12.73;;;;;;;15.26;80.74;101267.03;10353778;28;97720;-80
2023/03/11 23:15:31;;;;;;;24.35;11.88;;;;;;;15.21;80.87;101271.63;10318830;28;96713;-80
2023/03/11 23:20:37;;;;;;;23.70;10.85;;;;;;;15.27;80.66;101264.31;10352935;28;96848;-78
2023/03/11 23:25:41;;;;;;;18.48;10.43;;;;;;;15.10;80.59;101261.50;10345170;28;96700;-80
2023/03/11 23:30:44;;;;;;;21.93;12.97;;;;;;;15.16;80.69;101255.06;10353563;28;96967;-79
2023/03/11 23:35:49;;;;;;;19.23;12.02;;;;;;;15.02;81.31;101260.97;10382683;28;96613;-79
2023/03/11 23:40:52;;;;;;;19.33;11.68;;;;;;;15.10;81.43;101255.31;10382041;28;96834;-79
2023/03/11 23:45:55;;;;;;;17.40;11.65;;;;;;;15.04;80.87;101245.84;10362399;28;97438;-79
2023/03/11 23:51:00;;;;;;;18.33;10.95;;;;;;;15.14;80.90;101252.50;10376092;28;96792;-78
2023/03/11 23:56:09;;;;;;;23.77;14.23;;;;;;;15.19;80.60;101246.97;10378898;28;96726;-79
